Terminal Aerodrome Forecast
Issued by NWS Paducah, KY

Home | Current Version | Previous Version | Text Only | Print | Product List | Glossary On
Versions: 1 2 3 4 5 6 7 8 9 10 11 12
000
FTUS43 KPAH 152300
TAFEVV
TAF
KEVV 152320Z 1600/1624 00000KT P6SM SKC
     FM161400 14010KT P6SM SCT250
     FM161800 15013G19KT P6SM SCT250=

USA.gov is the U.S. government's official web portal to all federal, state and local government web resources and services.